Time;durP1;ratioP1;P1;durP2;ratioP2;P2;SDS_P1;SDS_P2;PMS_P1;PMS_P2;Temp;Humidity;BMP_temperature;BMP_pressure;BME280_temperature;BME280_humidity;BME280_pressure;Samples;Min_cycle;Max_cycle;Signal;HPM_P1;HPM_P2
2022/03/26 00:01:56;;;;;;;;;;;10.10;49.80;;;;;;8414861;28;19943;-73
2022/03/26 00:05:58;;;;;;;;;;;10.00;50.20;;;;;;8401199;28;19939;-73
2022/03/26 00:10:00;;;;;;;;;;;9.90;51.20;;;;;;8389110;28;19939;-74
2022/03/26 00:14:01;;;;;;;;;;;9.80;51.40;;;;;;8395667;28;19925;-74
2022/03/26 00:18:03;;;;;;;;;;;9.80;51.40;;;;;;8388690;28;20249;-74
2022/03/26 00:22:05;;;;;;;;;;;9.70;51.40;;;;;;8407648;28;19928;-73
2022/03/26 00:26:10;;;;;;;;;;;9.70;51.40;;;;;;8405037;28;19924;-73
2022/03/26 00:30:12;;;;;;;;;;;9.70;51.40;;;;;;8399090;28;19947;-73
2022/03/26 00:34:14;;;;;;;;;;;9.70;51.10;;;;;;8403373;28;19925;-73
2022/03/26 00:38:16;;;;;;;;;;;9.70;51.40;;;;;;8399805;28;19932;-73
2022/03/26 00:42:17;;;;;;;;;;;9.70;50.90;;;;;;8399258;28;19928;-73
2022/03/26 00:46:19;;;;;;;;;;;9.70;50.80;;;;;;8424716;28;19924;-73
2022/03/26 00:50:21;;;;;;;;;;;9.60;51.00;;;;;;8399459;28;19933;-73
2022/03/26 00:54:23;;;;;;;;;;;9.50;50.90;;;;;;8413424;28;19924;-73
2022/03/26 00:58:25;;;;;;;;;;;9.40;50.80;;;;;;8401691;28;19935;-73
2022/03/26 01:02:26;;;;;;;;;;;9.40;50.90;;;;;;8431441;28;20303;-73
2022/03/26 01:06:28;;;;;;;;;;;9.30;51.70;;;;;;8416539;28;19950;-73
2022/03/26 01:10:30;;;;;;;;;;;9.30;51.00;;;;;;8410684;28;20315;-74
2022/03/26 01:14:32;;;;;;;;;;;9.30;51.00;;;;;;8425567;28;20275;-73
2022/03/26 01:18:34;;;;;;;;;;;9.20;50.90;;;;;;8421646;28;19931;-73
2022/03/26 01:22:36;;;;;;;;;;;9.20;50.90;;;;;;8405386;28;19924;-73
2022/03/26 01:26:37;;;;;;;;;;;9.10;51.50;;;;;;8417394;28;19932;-73
2022/03/26 01:30:40;;;;;;;;;;;9.00;51.00;;;;;;8418140;28;19930;-73
2022/03/26 01:34:42;;;;;;;;;;;9.00;51.10;;;;;;8404729;28;19936;-73
2022/03/26 01:38:43;;;;;;;;;;;8.90;50.90;;;;;;8419285;28;19924;-73
2022/03/26 01:42:45;;;;;;;;;;;8.90;51.00;;;;;;8397563;28;19936;-73
2022/03/26 01:46:51;;;;;;;;;;;8.80;51.10;;;;;;8432997;28;20283;-73
2022/03/26 01:50:52;;;;;;;;;;;8.80;51.20;;;;;;8415942;28;20634;-73
2022/03/26 01:54:54;;;;;;;;;;;8.70;50.90;;;;;;8417391;28;19931;-73
2022/03/26 01:58:56;;;;;;;;;;;8.70;51.20;;;;;;8422767;28;20342;-73
2022/03/26 02:02:58;;;;;;;;;;;8.60;51.00;;;;;;8396153;28;19924;-73
2022/03/26 02:07:02;;;;;;;;;;;8.50;51.00;;;;;;8397591;28;20179;-73
2022/03/26 02:11:04;;;;;;;;;;;8.50;51.60;;;;;;8408511;28;20218;-73
2022/03/26 02:15:09;;;;;;;;;;;8.40;51.40;;;;;;8405319;28;19925;-73
2022/03/26 02:19:11;;;;;;;;;;;8.40;51.50;;;;;;8392411;28;19932;-73
2022/03/26 02:23:12;;;;;;;;;;;8.30;51.70;;;;;;8405727;28;19979;-73
2022/03/26 02:27:14;;;;;;;;;;;8.20;52.00;;;;;;8416655;28;19928;-73
2022/03/26 02:31:16;;;;;;;;;;;8.10;51.80;;;;;;8416591;28;19928;-73
2022/03/26 02:35:18;;;;;;;;;;;8.10;51.80;;;;;;8408956;28;19935;-73
2022/03/26 02:39:20;;;;;;;;;;;8.10;52.10;;;;;;8377544;28;19932;-73
2022/03/26 02:43:22;;;;;;;;;;;8.00;52.20;;;;;;8394440;28;19932;-73
2022/03/26 02:47:24;;;;;;;;;;;8.00;52.40;;;;;;8410382;28;19932;-74
2022/03/26 02:51:25;;;;;;;;;;;8.00;52.60;;;;;;8415313;28;19924;-74
2022/03/26 02:55:27;;;;;;;;;;;8.00;52.30;;;;;;8398794;28;19924;-73
2022/03/26 02:59:29;;;;;;;;;;;8.00;52.20;;;;;;8397133;28;20303;-73
2022/03/26 03:03:30;;;;;;;;;;;8.00;52.50;;;;;;8409887;28;21896;-73
2022/03/26 03:07:32;;;;;;;;;;;7.90;52.20;;;;;;8390363;28;20469;-73
2022/03/26 03:11:35;;;;;;;;;;;7.90;52.30;;;;;;8427510;28;19931;-74
2022/03/26 03:15:37;;;;;;;;;;;7.90;52.20;;;;;;8394765;28;20229;-73
2022/03/26 03:19:38;;;;;;;;;;;7.90;52.50;;;;;;8403349;28;19932;-74
2022/03/26 03:23:40;;;;;;;;;;;7.80;52.50;;;;;;8404534;28;19932;-73
2022/03/26 03:27:42;;;;;;;;;;;7.80;52.60;;;;;;8395894;28;19924;-73
2022/03/26 03:31:47;;;;;;;;;;;7.70;52.10;;;;;;8410819;28;20403;-73
2022/03/26 03:35:49;;;;;;;;;;;7.50;52.00;;;;;;8409638;28;19928;-73
2022/03/26 03:39:51;;;;;;;;;;;7.30;52.20;;;;;;8399276;28;19931;-73
2022/03/26 03:43:53;;;;;;;;;;;7.20;52.50;;;;;;8382402;28;19924;-73
2022/03/26 03:47:54;;;;;;;;;;;7.20;52.60;;;;;;8388265;28;21984;-73
2022/03/26 03:51:56;;;;;;;;;;;7.20;53.50;;;;;;8407530;28;19924;-73
2022/03/26 03:55:58;;;;;;;;;;;7.20;52.90;;;;;;8411700;28;19924;-73
2022/03/26 04:00:00;;;;;;;;;;;7.10;52.70;;;;;;8394118;28;20321;-73
2022/03/26 04:04:02;;;;;;;;;;;7.10;52.80;;;;;;8401807;28;19928;-73
2022/03/26 04:08:04;;;;;;;;;;;7.10;53.00;;;;;;8408299;28;19924;-73
2022/03/26 04:12:06;;;;;;;;;;;7.00;53.20;;;;;;8391887;28;19932;-73
2022/03/26 04:16:07;;;;;;;;;;;7.00;53.20;;;;;;8412249;28;20319;-73
2022/03/26 04:20:10;;;;;;;;;;;6.90;53.60;;;;;;8421412;28;19985;-73
2022/03/26 04:24:12;;;;;;;;;;;6.90;53.50;;;;;;8416858;28;19928;-73
2022/03/26 04:28:13;;;;;;;;;;;6.90;54.10;;;;;;8405437;28;19931;-73
2022/03/26 04:32:15;;;;;;;;;;;6.90;54.60;;;;;;8408256;28;19927;-73
2022/03/26 04:36:17;;;;;;;;;;;6.90;54.20;;;;;;8394518;28;19925;-73
2022/03/26 04:40:18;;;;;;;;;;;6.80;54.70;;;;;;8414324;28;19932;-73
2022/03/26 04:44:20;;;;;;;;;;;6.80;54.20;;;;;;8414508;28;19928;-73
2022/03/26 04:48:22;;;;;;;;;;;6.80;54.60;;;;;;8398854;28;19931;-73
2022/03/26 04:52:23;;;;;;;;;;;6.80;54.60;;;;;;8392654;28;20357;-73
2022/03/26 04:56:25;;;;;;;;;;;6.80;55.00;;;;;;8404192;28;20371;-73
2022/03/26 05:00:27;;;;;;;;;;;6.80;54.80;;;;;;8400615;28;19951;-73
2022/03/26 05:04:28;;;;;;;;;;;6.70;53.90;;;;;;8411646;28;20256;-73
2022/03/26 05:08:30;;;;;;;;;;;6.60;53.80;;;;;;8413013;28;20573;-73
2022/03/26 05:12:32;;;;;;;;;;;6.40;54.20;;;;;;8384150;28;19928;-73
2022/03/26 05:16:33;;;;;;;;;;;6.20;54.40;;;;;;8387787;28;19924;-73
2022/03/26 05:20:35;;;;;;;;;;;6.10;54.50;;;;;;8412447;28;19928;-73
2022/03/26 05:24:37;;;;;;;;;;;6.10;55.20;;;;;;8396775;28;19936;-73
2022/03/26 05:28:38;;;;;;;;;;;6.00;54.70;;;;;;8400133;28;19923;-73
2022/03/26 05:32:40;;;;;;;;;;;6.00;54.20;;;;;;8405007;28;20399;-73
2022/03/26 05:36:42;;;;;;;;;;;5.90;54.30;;;;;;8412716;28;20330;-73
2022/03/26 05:40:44;;;;;;;;;;;5.90;54.50;;;;;;8404600;28;19940;-72
2022/03/26 05:44:45;;;;;;;;;;;5.70;54.90;;;;;;8397003;28;20295;-73
2022/03/26 05:48:47;;;;;;;;;;;5.60;54.70;;;;;;8390981;28;20532;-73
2022/03/26 05:52:49;;;;;;;;;;;5.60;55.30;;;;;;8401733;28;20260;-73
2022/03/26 05:56:53;;;;;;;;;;;5.60;55.40;;;;;;8385092;28;19928;-73
2022/03/26 06:00:55;;;;;;;;;;;5.60;55.50;;;;;;8414663;28;20348;-73
2022/03/26 06:04:57;;;;;;;;;;;5.60;55.50;;;;;;8406240;28;20019;-73
2022/03/26 06:08:59;;;;;;;;;;;5.70;55.80;;;;;;8420658;28;19924;-73
2022/03/26 06:13:00;;;;;;;;;;;5.70;56.20;;;;;;8404307;28;19928;-73
2022/03/26 06:17:02;;;;;;;;;;;5.80;56.10;;;;;;8414195;28;19924;-73
2022/03/26 06:21:05;;;;;;;;;;;5.90;56.80;;;;;;8417454;28;19932;-73
2022/03/26 06:25:07;;;;;;;;;;;5.90;57.20;;;;;;8415674;28;20344;-73
2022/03/26 06:29:09;;;;;;;;;;;6.00;57.40;;;;;;8418002;28;19928;-73
2022/03/26 06:33:12;;;;;;;;;;;6.00;57.40;;;;;;8418237;28;19924;-73
2022/03/26 06:37:14;;;;;;;;;;;6.20;57.80;;;;;;8408380;28;19931;-73
2022/03/26 06:41:16;;;;;;;;;;;6.30;58.00;;;;;;8422302;28;20042;-74
2022/03/26 06:45:18;;;;;;;;;;;6.40;58.40;;;;;;8416329;28;20307;-73
2022/03/26 06:49:19;;;;;;;;;;;6.50;59.00;;;;;;8411184;28;19932;-73
2022/03/26 06:53:21;;;;;;;;;;;6.60;59.50;;;;;;8391426;28;19928;-73
2022/03/26 06:57:23;;;;;;;;;;;6.70;59.70;;;;;;8407552;28;19932;-73
2022/03/26 07:01:24;;;;;;;;;;;6.90;60.00;;;;;;8411392;28;19928;-73
2022/03/26 07:05:27;;;;;;;;;;;7.10;60.10;;;;;;8407653;28;19924;-73
2022/03/26 07:09:28;;;;;;;;;;;7.30;60.30;;;;;;8399877;28;20407;-73
2022/03/26 07:13:30;;;;;;;;;;;7.50;60.70;;;;;;8396554;28;19970;-73
2022/03/26 07:17:32;;;;;;;;;;;7.80;61.20;;;;;;8410385;28;20485;-73
2022/03/26 07:21:33;;;;;;;;;;;8.00;61.40;;;;;;8416345;28;19924;-73
2022/03/26 07:25:35;;;;;;;;;;;8.30;62.10;;;;;;8407300;28;19960;-73
2022/03/26 07:29:40;;;;;;;;;;;8.50;61.90;;;;;;8415698;28;19931;-73
2022/03/26 07:33:41;;;;;;;;;;;8.70;62.50;;;;;;8420661;28;19928;-73
2022/03/26 07:37:43;;;;;;;;;;;8.90;61.90;;;;;;8419133;28;20380;-73
2022/03/26 07:41:48;;;;;;;;;;;9.20;62.00;;;;;;8424679;28;20290;-73
2022/03/26 07:45:50;;;;;;;;;;;9.40;62.40;;;;;;8413638;28;19924;-73
2022/03/26 07:49:52;;;;;;;;;;;9.70;62.50;;;;;;8420193;28;20319;-73
2022/03/26 07:53:53;;;;;;;;;;;10.00;62.00;;;;;;8411682;28;20375;-73
2022/03/26 07:57:55;;;;;;;;;;;10.40;62.20;;;;;;8423166;28;19928;-73
2022/03/26 08:01:57;;;;;;;;;;;10.70;62.00;;;;;;8419733;28;20284;-73
2022/03/26 08:05:59;;;;;;;;;;;11.10;61.90;;;;;;8399826;28;19924;-73
2022/03/26 08:10:00;;;;;;;;;;;11.40;61.70;;;;;;8416730;28;19927;-73
2022/03/26 08:14:02;;;;;;;;;;;11.70;61.90;;;;;;8414595;28;20046;-73
2022/03/26 08:18:04;;;;;;;;;;;12.00;61.70;;;;;;8414257;28;19944;-73
2022/03/26 08:22:05;;;;;;;;;;;12.30;61.80;;;;;;8407598;28;19928;-73
2022/03/26 08:26:20;;;;;;;;;;;12.50;61.90;;;;;;8408572;28;19924;-73
2022/03/26 08:30:21;;;;;;;;;;;12.70;61.90;;;;;;8422642;28;20552;-74
2022/03/26 08:34:23;;;;;;;;;;;13.00;62.30;;;;;;8409978;28;20295;-73
2022/03/26 08:38:24;;;;;;;;;;;13.30;62.60;;;;;;8399235;28;19931;-73
2022/03/26 08:42:26;;;;;;;;;;;13.50;62.40;;;;;;8391521;28;19924;-73
2022/03/26 08:46:29;;;;;;;;;;;13.80;63.50;;;;;;8416529;28;19924;-73
2022/03/26 08:50:30;;;;;;;;;;;14.00;63.10;;;;;;8397275;28;19935;-73
2022/03/26 08:54:32;;;;;;;;;;;14.30;63.50;;;;;;8402784;28;19935;-73
2022/03/26 08:58:34;;;;;;;;;;;14.50;63.70;;;;;;8397610;28;20403;-73
2022/03/26 09:02:36;;;;;;;;;;;14.70;63.90;;;;;;8399816;28;20012;-73
2022/03/26 09:06:38;;;;;;;;;;;15.00;64.20;;;;;;8422227;28;19938;-73
2022/03/26 09:10:40;;;;;;;;;;;15.10;64.10;;;;;;8406002;28;20418;-73
2022/03/26 09:14:43;;;;;;;;;;;15.30;64.50;;;;;;8421920;28;20280;-73
2022/03/26 09:18:44;;;;;;;;;;;15.50;64.80;;;;;;8418301;28;19923;-73
2022/03/26 09:22:46;;;;;;;;;;;15.60;65.10;;;;;;8419520;28;20376;-73
2022/03/26 09:26:47;;;;;;;;;;;15.80;65.80;;;;;;8408328;28;20295;-73
2022/03/26 09:30:50;;;;;;;;;;;15.90;65.70;;;;;;8431183;28;20279;-73
2022/03/26 09:34:51;;;;;;;;;;;16.10;65.70;;;;;;8424895;28;19928;-73
2022/03/26 09:38:53;;;;;;;;;;;16.30;65.90;;;;;;8425250;28;19931;-73
2022/03/26 09:42:55;;;;;;;;;;;16.50;66.10;;;;;;8423640;28;19935;-73
2022/03/26 09:46:57;;;;;;;;;;;16.70;65.70;;;;;;8421401;28;20339;-73
2022/03/26 09:51:01;;;;;;;;;;;16.80;66.10;;;;;;8395974;28;19928;-73
2022/03/26 09:55:03;;;;;;;;;;;17.00;65.90;;;;;;8421863;28;19952;-72
2022/03/26 09:59:05;;;;;;;;;;;17.20;66.10;;;;;;8421738;28;19924;-73
2022/03/26 10:03:06;;;;;;;;;;;17.40;66.20;;;;;;8421098;28;19924;-73
2022/03/26 10:07:09;;;;;;;;;;;17.70;66.10;;;;;;8420578;28;19928;-73
2022/03/26 10:11:19;;;;;;;;;;;18.00;66.20;;;;;;8399837;28;19928;-73
2022/03/26 10:15:21;;;;;;;16.88;8.48;;;18.30;67.00;;;;;;8412496;28;19925;-74
2022/03/26 10:19:23;;;;;;;14.63;8.13;;;18.70;67.80;;;;;;8397139;28;20154;-74
2022/03/26 10:23:28;;;;;;;;;;;19.10;71.00;;;;;;8419187;28;20044;-74
2022/03/26 10:27:34;;;;;;;;;;;19.50;74.90;;;;;;8408075;28;19920;-74
2022/03/26 10:36:01;;;;;;;;;;;20.40;84.10;;;;;;8419482;28;20379;-74
2022/03/26 10:40:15;;;;;;;;;;;20.80;86.50;;;;;;8425202;28;19924;-74
2022/03/26 10:44:17;;;;;;;;;;;21.10;88.50;;;;;;8423530;28;19931;-74
2022/03/26 10:48:23;;;;;;;;;;;21.40;90.50;;;;;;8417550;28;19920;-74
2022/03/26 10:52:30;;;;;;;;;;;21.70;90.90;;;;;;8416419;28;20364;-74
2022/03/26 10:56:32;;;;;;;;;;;21.70;91.00;;;;;;8403134;28;19920;-74
2022/03/26 11:00:34;;;;;;;;;;;21.70;85.90;;;;;;8421075;28;19920;-74
2022/03/26 11:04:36;;;;;;;;;;;21.70;81.50;;;;;;8424326;28;19955;-74
2022/03/26 11:08:40;;;;;;;;;;;21.90;79.10;;;;;;8425026;28;19923;-74
2022/03/26 11:12:43;;;;;;;;;;;22.20;80.60;;;;;;8418892;28;19923;-74
2022/03/26 11:17:00;;;;;;;;;;;22.60;83.00;;;;;;8402310;28;19928;-74
2022/03/26 11:21:09;;;;;;;;;;;23.00;86.40;;;;;;8422094;28;19924;-74
2022/03/26 11:25:30;;;;;;;;;;;23.50;87.40;;;;;;8408405;28;19934;-74
2022/03/26 11:29:42;;;;;;;;;;;23.80;87.40;;;;;;8419539;28;19928;-74
2022/03/26 11:33:47;;;;;;;;;;;23.80;85.40;;;;;;8420980;28;19947;-73
2022/03/26 11:37:53;;;;;;;;;;;24.10;83.60;;;;;;8418135;28;19931;-74
2022/03/26 11:41:55;;;;;;;;;;;24.40;83.00;;;;;;8406910;28;20111;-74
2022/03/26 11:50:41;;;;;;;;;;;25.10;82.90;;;;;;8405478;28;19928;-75
2022/03/26 11:54:43;;;;;;;;;;;25.20;79.60;;;;;;8407287;28;19960;-74
2022/03/26 11:58:44;;;;;;;;;;;25.20;78.60;;;;;;8396572;28;20364;-74
2022/03/26 12:02:49;;;;;;;;;;;25.50;79.80;;;;;;8399901;28;19920;-73
2022/03/26 12:06:54;;;;;;;;;;;25.60;78.30;;;;;;8412843;28;19924;-73
2022/03/26 12:10:56;;;;;;;;;;;25.80;81.00;;;;;;8403472;28;20115;-73
2022/03/26 12:15:05;;;;;;;21.00;13.50;;;26.10;82.60;;;;;;8422103;28;19939;-74
2022/03/26 12:19:06;;;;;;;19.50;12.15;;;26.30;80.40;;;;;;8416574;28;20048;-74
2022/03/26 12:23:13;;;;;;;;;;;26.40;79.10;;;;;;8414228;28;20399;-73
2022/03/26 12:27:16;;;;;;;23.15;13.57;;;26.70;77.50;;;;;;8398755;28;20080;-73
2022/03/26 12:31:19;;;;;;;20.80;13.35;;;26.80;75.70;;;;;;8420427;28;20044;-73
2022/03/26 12:35:21;;;;;;;;;;;26.90;72.80;;;;;;8420214;28;20056;-73
2022/03/26 12:39:23;;;;;;;;;;;26.70;68.60;;;;;;8414551;28;20027;-73
2022/03/26 12:43:25;;;;;;;;;;;26.40;64.60;;;;;;8400261;28;19928;-73
2022/03/26 12:47:27;;;;;;;;;;;26.30;63.40;;;;;;8424899;28;19924;-73
2022/03/26 12:51:29;;;;;;;;;;;26.10;62.00;;;;;;8415296;28;19931;-73
2022/03/26 12:55:30;;;;;;;;;;;25.70;58.30;;;;;;8413511;28;19935;-73
2022/03/26 12:59:32;;;;;;;;;;;25.30;54.60;;;;;;8405203;28;20038;-73
2022/03/26 13:03:34;;;;;;;;;;;24.70;52.50;;;;;;8411878;28;19965;-73
2022/03/26 13:07:37;;;;;;;;;;;24.50;51.60;;;;;;8410075;28;20011;-73
2022/03/26 13:11:38;;;;;;;;;;;24.30;50.70;;;;;;8412489;28;19931;-73
2022/03/26 13:15:40;;;;;;;;;;;24.20;50.00;;;;;;8427670;28;19977;-73
2022/03/26 13:19:45;;;;;;;;;;;24.20;49.20;;;;;;8415364;28;19924;-73
2022/03/26 13:23:57;;;;;;;;;;;24.10;48.40;;;;;;8416979;28;19924;-73
2022/03/26 13:28:17;;;;;;;;;;;24.00;47.80;;;;;;8403995;28;20367;-72
2022/03/26 13:32:19;;;;;;;;;;;23.90;47.60;;;;;;8423617;28;19924;-72
2022/03/26 13:36:29;;;;;;;;;;;24.00;47.80;;;;;;8412409;28;20328;-72
2022/03/26 13:40:32;;;;;;;;;;;24.20;47.70;;;;;;8401055;28;20302;-72
2022/03/26 13:44:34;;;;;;;;;;;24.20;47.50;;;;;;8416605;28;19928;-73
2022/03/26 13:48:46;;;;;;;;;;;24.20;46.50;;;;;;8430053;28;19928;-72
2022/03/26 13:52:50;;;;;;;;;;;24.00;46.40;;;;;;8425072;28;19926;-73
2022/03/26 13:56:54;;;;;;;;;;;24.00;46.20;;;;;;8423272;28;20267;-73
2022/03/26 14:00:57;;;;;;;;;;;24.00;46.00;;;;;;8407631;28;19920;-72
2022/03/26 14:04:59;;;;;;;;;;;24.00;45.90;;;;;;8416095;28;20328;-73
2022/03/26 14:09:02;;;;;;;;;;;24.00;45.90;;;;;;8412553;28;19924;-72
2022/03/26 14:13:08;;;;;;;;;;;24.10;45.80;;;;;;8411299;28;20006;-73
2022/03/26 14:17:10;;;;;;;;;;;24.40;47.10;;;;;;8398116;28;19950;-73
2022/03/26 14:21:12;;;;;;;;;;;25.20;51.20;;;;;;8426312;28;19927;-73
2022/03/26 14:25:14;;;;;;;;;;;26.40;54.50;;;;;;8414227;28;19929;-73
2022/03/26 14:29:16;;;;;;;;;;;27.50;56.30;;;;;;8414282;28;19928;-73
2022/03/26 14:33:17;;;;;;;;;;;28.10;55.10;;;;;;8418515;28;19920;-73
2022/03/26 14:37:19;;;;;;;;;;;28.60;55.10;;;;;;8380527;28;20322;-73
2022/03/26 14:41:21;;;;;;;;;;;29.30;55.40;;;;;;8390604;28;20320;-73
2022/03/26 14:45:25;;;;;;;16.52;7.82;;;29.60;54.50;;;;;;8395721;28;19923;-73
2022/03/26 14:49:27;;;;;;;;;;;29.80;54.00;;;;;;8401665;28;20493;-73
2022/03/26 14:53:29;;;;;;;;;;;29.90;52.10;;;;;;8389525;28;20395;-73
2022/03/26 14:57:30;;;;;;;;;;;30.10;50.90;;;;;;8387058;28;19928;-73
2022/03/26 15:01:32;;;;;;;;;;;30.40;51.20;;;;;;8387719;28;20535;-73
2022/03/26 15:05:34;;;;;;;;;;;30.40;50.30;;;;;;8386771;28;19920;-73
2022/03/26 15:09:36;;;;;;;;;;;30.30;48.60;;;;;;8390868;28;19920;-73
2022/03/26 15:13:37;;;;;;;;;;;30.10;48.70;;;;;;8382398;28;24342;-73
2022/03/26 15:17:39;;;;;;;;;;;30.00;48.20;;;;;;8381360;28;19928;-73
2022/03/26 15:21:41;;;;;;;;;;;30.00;48.20;;;;;;8387496;28;19935;-73
2022/03/26 15:25:42;;;;;;;;;;;29.90;45.80;;;;;;8391136;28;20019;-73
2022/03/26 15:29:44;;;;;;;;;;;29.80;45.90;;;;;;8372137;28;19920;-73
2022/03/26 15:33:47;;;;;;;;;;;29.70;45.90;;;;;;8367569;28;19925;-73
2022/03/26 15:37:49;;;;;;;;;;;29.60;45.40;;;;;;8370728;28;20378;-73
2022/03/26 15:41:51;;;;;;;;;;;29.60;44.40;;;;;;8392935;28;19921;-73
2022/03/26 15:45:52;;;;;;;;;;;29.60;45.20;;;;;;8393803;28;19935;-74
2022/03/26 15:49:54;;;;;;;;;;;29.90;45.90;;;;;;8396801;28;19928;-73
2022/03/26 15:53:57;;;;;;;;;;;30.10;45.80;;;;;;8375886;28;20390;-73
2022/03/26 15:57:59;;;;;;;;;;;29.90;45.60;;;;;;8390574;28;20022;-71
2022/03/26 16:02:00;;;;;;;;;;;29.60;45.50;;;;;;8379065;28;19931;-73
2022/03/26 16:06:03;;;;;;;;;;;29.30;45.20;;;;;;8388458;28;19924;-73
2022/03/26 16:10:06;;;;;;;21.02;15.82;;;29.10;45.40;;;;;;8368527;28;20272;-73
2022/03/26 16:14:07;;;;;;;21.83;15.32;;;28.80;45.30;;;;;;8373146;28;20051;-73
2022/03/26 16:18:09;;;;;;;19.17;14.75;;;28.60;45.70;;;;;;8365842;28;20037;-73
2022/03/26 16:22:11;;;;;;;16.95;12.93;;;28.60;45.80;;;;;;8384473;28;20052;-73
2022/03/26 16:26:13;;;;;;;16.08;13.30;;;28.40;46.00;;;;;;8386686;28;20060;-73
2022/03/26 16:30:17;;;;;;;16.45;12.27;;;28.30;46.10;;;;;;8382120;28;20117;-72
2022/03/26 16:34:19;;;;;;;14.68;11.30;;;27.80;46.00;;;;;;8388356;28;20052;-73
2022/03/26 16:38:20;;;;;;;;;;;27.50;46.10;;;;;;8390398;28;20063;-74
2022/03/26 16:42:22;;;;;;;;;;;27.30;46.00;;;;;;8374967;28;20023;-73
2022/03/26 16:46:25;;;;;;;;;;;27.20;46.00;;;;;;8382317;28;20532;-73
2022/03/26 16:50:30;;;;;;;;;;;27.30;46.00;;;;;;8382936;28;19935;-73
2022/03/26 16:54:31;;;;;;;;;;;27.40;45.70;;;;;;8383958;28;20264;-73
2022/03/26 16:58:33;;;;;;;;;;;27.40;45.70;;;;;;8368172;28;19920;-74
2022/03/26 17:02:35;;;;;;;;;;;27.50;45.30;;;;;;8385694;28;19924;-74
2022/03/26 17:06:37;;;;;;;;;;;27.30;44.70;;;;;;8386000;28;19924;-73
2022/03/26 17:10:38;;;;;;;;;;;27.00;44.30;;;;;;8384298;28;19920;-73
2022/03/26 17:14:40;;;;;;;;;;;26.50;44.10;;;;;;8383575;28;19951;-73
2022/03/26 17:18:42;;;;;;;;;;;26.20;44.10;;;;;;8384602;28;19921;-73
2022/03/26 17:22:45;;;;;;;;;;;25.70;43.90;;;;;;8387090;28;19924;-72
2022/03/26 17:26:47;;;;;;;;;;;25.20;43.80;;;;;;8380557;28;20605;-72
2022/03/26 17:30:48;;;;;;;;;;;24.80;43.90;;;;;;8388328;28;19924;-73
2022/03/26 17:34:52;;;;;;;;;;;24.40;43.90;;;;;;8374729;28;19924;-73
2022/03/26 17:38:54;;;;;;;;;;;24.10;43.80;;;;;;8404574;28;19925;-73
2022/03/26 17:42:56;;;;;;;;;;;23.50;43.80;;;;;;8376083;28;19935;-72
2022/03/26 17:46:59;;;;;;;;;;;22.90;43.70;;;;;;8393353;28;20339;-73
2022/03/26 17:51:00;;;;;;;;;;;22.20;43.70;;;;;;8391122;28;19928;-73
2022/03/26 17:55:03;;;;;;;;;;;21.50;44.00;;;;;;8391124;28;20295;-72
2022/03/26 17:59:05;;;;;;;;;;;20.80;44.30;;;;;;8388302;28;20293;-73
2022/03/26 18:03:07;;;;;;;;;;;20.10;44.90;;;;;;8390137;28;19928;-73
2022/03/26 18:07:09;;;;;;;;;;;19.50;45.80;;;;;;8393715;28;19931;-72
2022/03/26 18:11:10;;;;;;;;;;;19.10;46.80;;;;;;8389674;28;19924;-73
2022/03/26 18:15:12;;;;;;;;;;;18.80;46.40;;;;;;8392483;28;19959;-72
2022/03/26 18:19:14;;;;;;;;;;;18.60;46.80;;;;;;8389189;28;19935;-72
2022/03/26 18:23:15;;;;;;;;;;;18.30;47.40;;;;;;8392127;28;19944;-72
2022/03/26 18:27:18;;;;;;;;;;;18.10;47.70;;;;;;8370198;28;19924;-72
2022/03/26 18:31:20;;;;;;;;;;;17.90;47.80;;;;;;8386818;28;19924;-72
2022/03/26 18:35:21;;;;;;;;;;;17.80;48.20;;;;;;8391742;28;19920;-72
2022/03/26 18:39:23;;;;;;;;;;;17.70;48.20;;;;;;8391150;28;20300;-73
2022/03/26 18:43:25;;;;;;;;;;;17.50;49.20;;;;;;8393442;28;19929;-72
2022/03/26 18:47:26;;;;;;;;;;;17.20;49.00;;;;;;8388893;28;19924;-72
2022/03/26 18:51:28;;;;;;;;;;;17.10;49.30;;;;;;8387706;28;20391;-72
2022/03/26 18:55:30;;;;;;;;;;;16.90;49.50;;;;;;8389147;28;19927;-72
2022/03/26 18:59:32;;;;;;;;;;;16.80;49.40;;;;;;8393600;28;19924;-72
2022/03/26 19:03:33;;;;;;;;;;;16.80;49.50;;;;;;8393631;28;20386;-72
2022/03/26 19:07:35;;;;;;;;;;;16.70;49.90;;;;;;8387412;28;19924;-72
2022/03/26 19:11:37;;;;;;;;;;;16.50;50.30;;;;;;8387627;28;19924;-72
2022/03/26 19:15:39;;;;;;;;;;;16.50;50.20;;;;;;8401417;28;19920;-72
2022/03/26 19:19:41;;;;;;;;;;;16.30;50.30;;;;;;8389409;28;19931;-72
2022/03/26 19:23:42;;;;;;;;;;;16.20;50.60;;;;;;8374515;28;19936;-72
2022/03/26 19:27:45;;;;;;;;;;;16.10;50.90;;;;;;8386653;28;19928;-72
2022/03/26 19:31:46;;;;;;;;;;;16.10;51.30;;;;;;8389642;28;19958;-72
2022/03/26 19:35:48;;;;;;;;;;;16.10;51.30;;;;;;8387993;28;20372;-72
2022/03/26 19:39:50;;;;;;;;;;;16.00;51.30;;;;;;8372469;28;19925;-73
2022/03/26 19:43:51;;;;;;;;;;;16.00;51.50;;;;;;8388802;28;19924;-73
2022/03/26 19:47:53;;;;;;;;;;;15.90;51.60;;;;;;8398538;28;19924;-72
2022/03/26 19:51:58;;;;;;;;;;;15.80;51.70;;;;;;8380675;28;19928;-72
2022/03/26 19:56:01;;;;;;;;;;;15.70;52.00;;;;;;8394928;28;19929;-72
2022/03/26 20:00:06;;;;;;;;;;;15.60;52.20;;;;;;8370410;28;19924;-73
2022/03/26 20:04:08;;;;;;;;;;;15.50;52.50;;;;;;8386518;28;19920;-72
2022/03/26 20:08:10;;;;;;;;;;;15.40;52.70;;;;;;8381932;28;19924;-73
2022/03/26 20:12:13;;;;;;;;;;;15.20;53.10;;;;;;8386438;28;19924;-72
2022/03/26 20:20:36;;;;;;;;;;;15.00;53.50;;;;;;8384120;28;19924;-73
2022/03/26 20:24:37;;;;;;;;;;;14.90;53.70;;;;;;8383273;28;19921;-73
2022/03/26 20:28:55;;;;;;;;;;;14.70;54.90;;;;;;8385838;28;20526;-73
2022/03/26 20:32:56;;;;;;;;;;;14.60;54.50;;;;;;8368417;28;19924;-73
2022/03/26 20:36:59;;;;;;;;;;;14.50;54.80;;;;;;8382549;28;19959;-73
2022/03/26 20:41:02;;;;;;;;;;;14.40;54.80;;;;;;8387258;28;19921;-73
2022/03/26 20:45:06;;;;;;;;;;;14.40;55.10;;;;;;8380626;28;19936;-73
2022/03/26 20:49:08;;;;;;;;;;;14.30;55.30;;;;;;8385573;28;19931;-73
2022/03/26 20:53:12;;;;;;;;;;;14.20;55.70;;;;;;8384558;28;19920;-73
2022/03/26 20:57:14;;;;;;;;;;;14.10;56.10;;;;;;8385035;28;19921;-72
2022/03/26 21:01:16;;;;;;;;;;;13.90;56.50;;;;;;8387143;28;20364;-73
2022/03/26 21:05:18;;;;;;;;;;;13.90;56.80;;;;;;8388946;28;20367;-73
2022/03/26 21:09:19;;;;;;;;;;;13.80;57.40;;;;;;8390171;28;20237;-73
2022/03/26 21:13:21;;;;;;;;;;;13.70;57.60;;;;;;8391251;28;19931;-73
2022/03/26 21:17:23;;;;;;;;;;;13.60;58.00;;;;;;8392445;28;19920;-73
2022/03/26 21:21:25;;;;;;;;;;;13.50;58.00;;;;;;8391321;28;19939;-73
2022/03/26 21:25:45;;;;;;;;;;;13.40;58.70;;;;;;8390899;28;19946;-73
2022/03/26 21:29:47;;;;;;;;;;;13.30;58.80;;;;;;8392052;28;19925;-73
2022/03/26 21:33:48;;;;;;;;;;;13.20;58.80;;;;;;8394772;28;19920;-73
2022/03/26 21:37:50;;;;;;;;;;;13.10;58.80;;;;;;8395533;28;19931;-73
2022/03/26 21:41:53;;;;;;;;;;;13.10;59.00;;;;;;8391947;28;19948;-73
2022/03/26 21:45:54;;;;;;;;;;;13.00;59.30;;;;;;8396910;28;19924;-73
2022/03/26 21:49:56;;;;;;;;;;;13.00;59.40;;;;;;8395154;28;20158;-73
2022/03/26 21:53:59;;;;;;;;;;;13.00;59.60;;;;;;8390061;28;20409;-73
2022/03/26 21:58:01;;;;;;;;;;;12.90;59.40;;;;;;8380704;28;19924;-73
2022/03/26 22:02:03;;;;;;;;;;;12.90;59.40;;;;;;8397400;28;20287;-73
2022/03/26 22:06:10;;;;;;;;;;;12.80;59.70;;;;;;8423378;28;19924;-73
2022/03/26 22:10:12;;;;;;;;;;;12.70;59.80;;;;;;8392572;28;19954;-73
2022/03/26 22:14:13;;;;;;;;;;;12.60;60.00;;;;;;8421602;28;19928;-72
2022/03/26 22:18:16;;;;;;;;;;;12.50;60.00;;;;;;8401375;28;19933;-73
2022/03/26 22:22:18;;;;;;;;;;;12.50;60.60;;;;;;8419263;28;20027;-73
2022/03/26 22:26:19;;;;;;;;;;;12.40;61.90;;;;;;8414336;28;19931;-73
2022/03/26 22:30:21;;;;;;;;;;;12.40;62.30;;;;;;8420114;28;19932;-73
2022/03/26 22:34:23;;;;;;;;;;;12.30;62.90;;;;;;8422025;28;19932;-73
2022/03/26 22:38:25;;;;;;;;;;;12.40;62.90;;;;;;8402278;28;20391;-73
2022/03/26 22:42:27;;;;;;;;;;;12.40;63.20;;;;;;8413261;28;19939;-73
2022/03/26 22:46:29;;;;;;;;;;;12.40;63.50;;;;;;8412970;28;19924;-73
2022/03/26 22:50:31;;;;;;;;;;;12.50;63.60;;;;;;8420161;28;19925;-73
2022/03/26 22:54:33;;;;;;;;;;;12.50;64.00;;;;;;8409972;28;20279;-73
2022/03/26 22:58:35;;;;;;;;;;;12.50;64.20;;;;;;8412932;28;19925;-72
2022/03/26 23:02:36;;;;;;;;;;;12.50;65.30;;;;;;8413957;28;20283;-73
2022/03/26 23:06:38;;;;;;;;;;;12.40;65.30;;;;;;8412374;28;19924;-72
2022/03/26 23:10:39;;;;;;;;;;;12.40;65.40;;;;;;8421013;28;19932;-73
2022/03/26 23:14:41;;;;;;;;;;;12.40;65.10;;;;;;8418567;28;19924;-73
2022/03/26 23:18:43;;;;;;;;;;;12.40;65.40;;;;;;8417800;28;19924;-72
2022/03/26 23:22:45;;;;;;;;;;;12.40;65.30;;;;;;8421957;28;20403;-73
2022/03/26 23:26:46;;;;;;;;;;;12.30;65.10;;;;;;8410409;28;19939;-72
2022/03/26 23:30:48;;;;;;;;;;;12.20;65.10;;;;;;8417648;28;20313;-72
2022/03/26 23:34:50;;;;;;;;;;;12.10;65.10;;;;;;8415761;28;19928;-73
2022/03/26 23:38:51;;;;;;;;;;;12.10;65.40;;;;;;8419389;28;19939;-73
2022/03/26 23:42:53;;;;;;;;;;;12.00;65.60;;;;;;8418635;28;20387;-72